sensor_id;sensor_type;location;lat;lon;timestamp;temperature;humidity
18268;DHT22;9260;49.998;19.880;2023-07-20T00:05:06;13.60;1.00
18268;DHT22;9260;49.998;19.880;2023-07-20T00:15:11;13.30;1.00
18268;DHT22;9260;49.998;19.880;2023-07-20T00:25:14;13.50;1.00
18268;DHT22;9260;49.998;19.880;2023-07-20T00:35:19;13.30;1.00
18268;DHT22;9260;49.998;19.880;2023-07-20T00:45:23;13.10;1.00
18268;DHT22;9260;49.998;19.880;2023-07-20T00:55:29;13.00;1.00
18268;DHT22;9260;49.998;19.880;2023-07-20T01:05:35;12.90;1.00
18268;DHT22;9260;49.998;19.880;2023-07-20T01:15:49;12.90;1.00
18268;DHT22;9260;49.998;19.880;2023-07-20T01:26:08;13.20;1.00
18268;DHT22;9260;49.998;19.880;2023-07-20T01:36:16;13.50;1.00
18268;DHT22;9260;49.998;19.880;2023-07-20T01:46:21;13.90;1.00
18268;DHT22;9260;49.998;19.880;2023-07-20T02:16:36;14.50;1.00
18268;DHT22;9260;49.998;19.880;2023-07-20T02:26:39;14.60;1.00
18268;DHT22;9260;49.998;19.880;2023-07-20T02:36:44;14.70;1.00
18268;DHT22;9260;49.998;19.880;2023-07-20T02:56:53;14.50;1.00
18268;DHT22;9260;49.998;19.880;2023-07-20T03:17:03;14.50;1.00
18268;DHT22;9260;49.998;19.880;2023-07-20T03:27:09;14.60;99.90
18268;DHT22;9260;49.998;19.880;2023-07-20T03:47:19;14.70;60.00
18268;DHT22;9260;49.998;19.880;2023-07-20T04:37:43;14.90;99.90
18268;DHT22;9260;49.998;19.880;2023-07-20T04:57:57;16.60;95.40
18268;DHT22;9260;49.998;19.880;2023-07-20T05:08:03;16.60;91.30
18268;DHT22;9260;49.998;19.880;2023-07-20T05:18:08;16.60;99.90
18268;DHT22;9260;49.998;19.880;2023-07-20T05:28:12;16.40;99.90
18268;DHT22;9260;49.998;19.880;2023-07-20T05:38:17;17.70;13.40
18268;DHT22;9260;49.998;19.880;2023-07-20T05:58:26;19.10;1.00
18268;DHT22;9260;49.998;19.880;2023-07-20T06:18:34;20.20;14.70
18268;DHT22;9260;49.998;19.880;2023-07-20T06:38:43;21.60;99.90
18268;DHT22;9260;49.998;19.880;2023-07-20T06:49:06;20.90;99.90
18268;DHT22;9260;49.998;19.880;2023-07-20T06:59:14;20.60;99.90
18268;DHT22;9260;49.998;19.880;2023-07-20T07:09:18;20.70;99.90
18268;DHT22;9260;49.998;19.880;2023-07-20T07:19:24;21.40;99.90
18268;DHT22;9260;49.998;19.880;2023-07-20T07:29:27;21.70;99.90
18268;DHT22;9260;49.998;19.880;2023-07-20T07:49:36;24.30;99.90
18268;DHT22;9260;49.998;19.880;2023-07-20T07:59:41;25.20;99.90
18268;DHT22;9260;49.998;19.880;2023-07-20T08:09:44;26.70;91.40
18268;DHT22;9260;49.998;19.880;2023-07-20T08:29:53;24.80;1.00
18268;DHT22;9260;49.998;19.880;2023-07-20T08:50:10;30.20;89.50
18268;DHT22;9260;49.998;19.880;2023-07-20T09:00:16;36.70;1.00
18268;DHT22;9260;49.998;19.880;2023-07-20T09:10:20;37.20;1.00
18268;DHT22;9260;49.998;19.880;2023-07-20T09:20:26;40.90;1.00
18268;DHT22;9260;49.998;19.880;2023-07-20T09:50:48;39.10;1.00
18268;DHT22;9260;49.998;19.880;2023-07-20T10:21:04;40.80;1.00
18268;DHT22;9260;49.998;19.880;2023-07-20T10:31:12;41.60;1.00
18268;DHT22;9260;49.998;19.880;2023-07-20T10:41:19;46.30;1.00
18268;DHT22;9260;49.998;19.880;2023-07-20T10:51:23;45.50;1.00
18268;DHT22;9260;49.998;19.880;2023-07-20T11:01:30;49.40;1.00
18268;DHT22;9260;49.998;19.880;2023-07-20T11:21:46;45.40;1.00
18268;DHT22;9260;49.998;19.880;2023-07-20T11:32:04;37.70;1.00
18268;DHT22;9260;49.998;19.880;2023-07-20T11:42:09;31.10;16.30
18268;DHT22;9260;49.998;19.880;2023-07-20T11:52:15;40.30;3.90
18268;DHT22;9260;49.998;19.880;2023-07-20T12:02:20;36.60;20.30
18268;DHT22;9260;49.998;19.880;2023-07-20T12:12:24;37.20;48.90
18268;DHT22;9260;49.998;19.880;2023-07-20T12:22:30;40.30;6.30
18268;DHT22;9260;49.998;19.880;2023-07-20T12:32:34;32.60;15.40
18268;DHT22;9260;49.998;19.880;2023-07-20T12:42:39;29.80;1.00
18268;DHT22;9260;49.998;19.880;2023-07-20T13:02:47;31.00;2.10
18268;DHT22;9260;49.998;19.880;2023-07-20T13:13:08;29.40;18.00
18268;DHT22;9260;49.998;19.880;2023-07-20T13:23:13;28.30;28.30
18268;DHT22;9260;49.998;19.880;2023-07-20T13:33:17;27.20;55.00
18268;DHT22;9260;49.998;19.880;2023-07-20T13:53:25;26.30;1.00
18268;DHT22;9260;49.998;19.880;2023-07-20T14:23:50;26.40;1.00
18268;DHT22;9260;49.998;19.880;2023-07-20T14:33:55;25.30;1.00
18268;DHT22;9260;49.998;19.880;2023-07-20T14:44:02;25.70;1.00
18268;DHT22;9260;49.998;19.880;2023-07-20T14:54:06;26.40;1.00
18268;DHT22;9260;49.998;19.880;2023-07-20T15:04:11;24.40;1.00
18268;DHT22;9260;49.998;19.880;2023-07-20T15:14:15;22.30;1.00
18268;DHT22;9260;49.998;19.880;2023-07-20T15:24:20;20.70;1.00
18268;DHT22;9260;49.998;19.880;2023-07-20T15:34:23;19.40;1.00
18268;DHT22;9260;49.998;19.880;2023-07-20T15:44:28;17.80;1.00
18268;DHT22;9260;49.998;19.880;2023-07-20T16:24:49;19.00;35.40
18268;DHT22;9260;49.998;19.880;2023-07-20T16:34:53;18.40;61.00
18268;DHT22;9260;49.998;19.880;2023-07-20T16:45:01;18.20;22.70
18268;DHT22;9260;49.998;19.880;2023-07-20T16:55:05;17.60;57.90
18268;DHT22;9260;49.998;19.880;2023-07-20T17:05:10;17.20;99.90
18268;DHT22;9260;49.998;19.880;2023-07-20T17:15:13;17.60;99.90
18268;DHT22;9260;49.998;19.880;2023-07-20T17:35:26;17.40;61.60
18268;DHT22;9260;49.998;19.880;2023-07-20T18:05:40;16.00;44.60
18268;DHT22;9260;49.998;19.880;2023-07-20T18:15:43;15.40;31.50
18268;DHT22;9260;49.998;19.880;2023-07-20T18:35:52;14.50;90.00
18268;DHT22;9260;49.998;19.880;2023-07-20T18:45:58;13.90;88.60
18268;DHT22;9260;49.998;19.880;2023-07-20T18:56:01;13.70;99.90
18268;DHT22;9260;49.998;19.880;2023-07-20T19:06:06;13.30;99.90
18268;DHT22;9260;49.998;19.880;2023-07-20T19:16:10;13.40;99.90
18268;DHT22;9260;49.998;19.880;2023-07-20T19:26:15;12.80;99.90
18268;DHT22;9260;49.998;19.880;2023-07-20T19:36:19;12.80;99.90
18268;DHT22;9260;49.998;19.880;2023-07-20T19:46:24;12.50;99.90
18268;DHT22;9260;49.998;19.880;2023-07-20T19:56:28;12.20;99.90
18268;DHT22;9260;49.998;19.880;2023-07-20T20:26:43;11.80;99.90
18268;DHT22;9260;49.998;19.880;2023-07-20T20:46:52;11.40;99.90
18268;DHT22;9260;49.998;19.880;2023-07-20T21:07:08;11.30;99.90
18268;DHT22;9260;49.998;19.880;2023-07-20T21:17:11;11.10;99.90
18268;DHT22;9260;49.998;19.880;2023-07-20T21:37:20;10.90;99.90
18268;DHT22;9260;49.998;19.880;2023-07-20T21:47:25;10.70;99.90
18268;DHT22;9260;49.998;19.880;2023-07-20T21:57:29;10.40;99.90
18268;DHT22;9260;49.998;19.880;2023-07-20T22:17:41;10.20;99.90
18268;DHT22;9260;49.998;19.880;2023-07-20T22:27:45;10.00;99.90
18268;DHT22;9260;49.998;19.880;2023-07-20T22:47:54;9.80;99.90
18268;DHT22;9260;49.998;19.880;2023-07-20T22:57:58;9.60;99.90
18268;DHT22;9260;49.998;19.880;2023-07-20T23:18:08;9.50;99.90
18268;DHT22;9260;49.998;19.880;2023-07-20T23:28:17;9.00;99.90
18268;DHT22;9260;49.998;19.880;2023-07-20T23:48:27;9.00;99.90
18268;DHT22;9260;49.998;19.880;2023-07-20T23:58:33;9.10;99.90
